Time;durP1;ratioP1;P1;durP2;ratioP2;P2;SDS_P1;SDS_P2;PMS_P1;PMS_P2;Temp;Humidity;BMP_temperature;BMP_pressure;BME280_temperature;BME280_humidity;BME280_pressure;Samples;Min_cycle;Max_cycle;Signal;HPM_P1;HPM_P2
2022/12/20 00:01:01;;;;;;;;;;;;;;;1.10;76.03;98663.31;5100064;28;20299;-59
2022/12/20 00:03:30;;;;;;;;;;;;;;;1.09;75.97;98659.03;5097135;28;19970;-58
2022/12/20 00:05:58;;;;;;;;;;;;;;;1.11;76.57;98670.31;5083783;28;19924;-61
2022/12/20 00:08:27;;;;;;;;;;;;;;;1.16;76.15;98661.59;5098316;28;19935;-59
2022/12/20 00:10:56;;;;;;;;;;;;;;;1.22;75.69;98660.66;5084236;28;19928;-59
2022/12/20 00:13:25;;;;;;;;;;;;;;;1.16;76.06;98651.69;5077705;28;19932;-60
2022/12/20 00:16:03;;;;;;;;;;;;;;;1.12;75.72;98647.88;5105419;28;19924;-59
2022/12/20 00:18:31;;;;;;;;;;;;;;;1.18;76.01;98638.91;5108690;27;19924;-59
2022/12/20 00:20:59;;;;;;;;;;;;;;;1.19;75.99;98642.41;5102129;28;19942;-59
2022/12/20 00:23:29;;;;;;;;;;;;;;;1.17;76.14;98637.28;5100226;28;19924;-59
2022/12/20 00:26:24;;;;;;;;;;;;;;;0.97;76.54;98618.88;5100372;28;20445;-61
2022/12/20 00:28:53;;;;;;;;;;;;;;;1.06;76.65;98640.75;5085842;28;19924;-58
2022/12/20 00:31:23;;;;;;;;;;;;;;;1.22;75.99;98663.31;5084709;28;19924;-59
2022/12/20 00:33:51;;;;;;;;;;;;;;;1.23;75.85;98665.78;5098862;28;19924;-60
2022/12/20 00:36:20;;;;;;;;;;;;;;;1.17;75.82;98656.03;5100592;28;19931;-59
2022/12/20 00:38:53;;;;;;;;;;;;;;;1.20;75.90;98657.41;5086462;28;19935;-59
2022/12/20 00:41:47;;;;;;;;;;;;;;;1.24;75.87;98650.53;5098716;28;19943;-59
2022/12/20 00:44:18;;;;;;;;;;;;;;;1.23;76.17;98652.41;5085680;28;20355;-59
2022/12/20 00:46:47;;;;;;;;;;;;;;;1.16;76.15;98640.16;5081700;28;19935;-60
2022/12/20 00:49:15;;;;;;;;;;;;;;;1.11;76.07;98648.09;5080729;28;20436;-59
2022/12/20 00:51:43;;;;;;;;;;;;;;;1.08;76.63;98653.91;5087405;28;20434;-59
2022/12/20 00:54:11;;;;;;;;;;;;;;;1.11;76.50;98658.78;5108117;28;19932;-62
2022/12/20 00:56:40;;;;;;;;;;;;;;;1.22;76.16;98660.66;5079711;28;19979;-60
2022/12/20 00:59:10;;;;;;;;;;;;;;;1.26;76.20;98669.84;5081468;28;19932;-58
2022/12/20 01:01:38;;;;;;;;;;;;;;;1.24;76.01;98664.75;5086115;28;19987;-59
2022/12/20 01:04:07;;;;;;;;;;;;;;;1.27;76.12;98653.56;5082978;28;20345;-59
2022/12/20 01:06:36;;;;;;;;;;;;;;;1.23;76.02;98656.94;5104361;28;20418;-59
2022/12/20 01:09:05;;;;;;;;;;;;;;;1.10;76.13;98646.47;5099316;28;19924;-59
2022/12/20 01:11:35;;;;;;;;;;;;;;;1.12;76.36;98639.00;5073083;28;19966;-59
2022/12/20 01:14:27;;;;;;;;;;;;;;;1.16;75.99;98626.78;5103045;28;19990;-58
2022/12/20 01:16:58;;;;;;;;;;;;;;;1.13;75.68;98635.31;5088201;28;20307;-59
2022/12/20 01:19:51;;;;;;;;;;;;;;;1.12;76.39;98655.06;5097340;28;19975;-59
2022/12/20 01:22:20;;;;;;;;;;;;;;;1.09;76.23;98656.34;5086022;28;20264;-59
2022/12/20 01:24:53;;;;;;;;;;;;;;;1.12;76.28;98644.34;5076879;28;19932;-59
2022/12/20 01:27:22;;;;;;;;;;;;;;;1.04;76.44;98632.97;5060488;28;20324;-59
2022/12/20 01:29:51;;;;;;;;;;;;;;;0.95;76.60;98630.84;5059678;28;19959;-60
2022/12/20 01:32:20;;;;;;;;;;;;;;;1.07;76.63;98610.28;5065137;28;19969;-58
2022/12/20 01:34:49;;;;;;;;;;;;;;;1.04;76.30;98608.88;5053660;28;19974;-59
2022/12/20 01:37:18;;;;;;;;;;;;;;;0.99;76.73;98618.66;5056182;28;19932;-59
2022/12/20 01:39:46;;;;;;;;;;;;;;;0.95;77.37;98623.63;5057056;28;19925;-59
2022/12/20 01:42:15;;;;;;;;;;;;;;;0.91;77.38;98635.06;5063488;28;19940;-60
2022/12/20 01:44:59;;;;;;;;;;;;;;;0.84;77.27;98628.97;5046647;28;20313;-59
2022/12/20 01:47:52;;;;;;;;;;;;;;;0.87;77.48;98625.84;5054245;28;19935;-58
2022/12/20 01:50:22;;;;;;;;;;;;;;;0.82;77.90;98620.38;5061622;28;19925;-59
2022/12/20 01:52:50;;;;;;;;;;;;;;;0.84;77.50;98626.31;5051962;28;20313;-59
2022/12/20 01:55:20;;;;;;;;;;;;;;;0.81;77.39;98627.59;5063920;28;20370;-59
2022/12/20 01:57:50;;;;;;;;;;;;;;;0.78;77.92;98636.06;5060503;28;19983;-59
2022/12/20 02:00:19;;;;;;;;;;;;;;;0.81;77.72;98638.28;5057883;28;19924;-62
2022/12/20 02:02:48;;;;;;;;;;;;;;;0.85;77.88;98646.66;5060120;28;19935;-58
2022/12/20 02:05:17;;;;;;;;;;;;;;;0.87;77.43;98650.75;5055666;28;19948;-60
2022/12/20 02:07:48;;;;;;;;;;;;;;;0.91;77.24;98635.88;5056582;28;20270;-65
2022/12/20 02:10:17;;;;;;;;;;;;;;;0.94;77.23;98624.69;5058099;28;19929;-68
2022/12/20 02:12:46;;;;;;;;;;;;;;;0.84;77.44;98615.59;5060702;28;19925;-64
2022/12/20 02:15:21;;;;;;;;;;;;;;;0.79;77.51;98616.28;5059837;28;19929;-66
2022/12/20 02:17:51;;;;;;;;;;;;;;;0.86;77.66;98610.84;5072773;28;19929;-62
2022/12/20 02:20:32;;;;;;;;;;;;;;;0.93;77.39;98614.22;5058560;28;19928;-59
2022/12/20 02:23:07;;;;;;;;;;;;;;;0.95;77.43;98610.25;5052077;28;19928;-59
2022/12/20 02:25:43;;;;;;;;;;;;;;;0.93;77.43;98599.00;5066325;28;19928;-59
2022/12/20 02:28:13;;;;;;;;;;;;;;;0.96;77.13;98608.41;5061517;28;19925;-59
2022/12/20 02:30:43;;;;;;;;;;;;;;;1.01;76.96;98589.78;5057559;28;20364;-59
2022/12/20 02:33:13;;;;;;;;;;;;;;;1.08;76.81;98579.00;5058692;28;19928;-58
2022/12/20 02:35:43;;;;;;;;;;;;;;;1.29;75.45;98556.97;5069376;28;20147;-59
2022/12/20 02:38:28;;;;;;;;;;;;;;;1.12;76.09;98543.50;5070306;28;19990;-59
2022/12/20 02:40:58;;;;;;;;;;;;;;;0.96;76.39;98561.09;5061912;28;20314;-59
2022/12/20 02:47:04;;;;;;;;;;;;;;;0.99;77.43;98549.91;5069438;28;19924;-59
2022/12/20 02:49:33;;;;;;;;;;;;;;;0.93;76.99;98540.13;5061016;28;19928;-59
2022/12/20 02:52:02;;;;;;;;;;;;;;;0.90;77.42;98540.59;5063539;28;19925;-59
2022/12/20 02:54:30;;;;;;;;;;;;;;;0.95;77.40;98540.69;5059897;28;19935;-59
2022/12/20 02:57:00;;;;;;;;;;;;;;;0.97;77.08;98552.00;5063993;28;20344;-64
2022/12/20 02:59:30;;;;;;;;;;;;;;;1.00;76.84;98551.50;5066920;28;19925;-60
2022/12/20 03:01:59;;;;;;;;;;;;;;;1.01;77.23;98553.16;5058497;28;19937;-64
2022/12/20 03:04:30;;;;;;;;;;;;;;;0.99;77.56;98549.91;5071923;28;20378;-65
2022/12/20 03:07:02;;;;;;;;;;;;;;;1.05;77.27;98535.56;5072577;28;19963;-59
2022/12/20 03:09:31;;;;;;;;;;;;;;;1.11;76.82;98546.38;5068038;28;20340;-59
2022/12/20 03:12:00;;;;;;;;;;;;;;;1.04;77.46;98558.03;5057981;28;20380;-60
2022/12/20 03:14:29;;;;;;;;;;;;;;;0.98;77.37;98567.00;5059112;28;20316;-59
2022/12/20 03:17:01;;;;;;;;;;;;;;;0.96;77.18;98562.91;5063090;28;19928;-59
2022/12/20 03:19:33;;;;;;;;;;;;;;;1.01;77.27;98547.81;5061161;28;19924;-59
2022/12/20 03:22:01;;;;;;;;;;;;;;;1.02;77.35;98544.09;5057153;28;20296;-64
2022/12/20 03:24:32;;;;;;;;;;;;;;;1.16;77.36;98533.13;5064894;28;19932;-59
2022/12/20 03:27:05;;;;;;;;;;;;;;;1.13;77.12;98533.59;5080537;28;19940;-60
2022/12/20 03:29:59;;;;;;;;;;;;;;;1.12;77.18;98545.34;5084840;28;19927;-61
2022/12/20 03:32:33;;;;;;;;;;;;;;;1.19;76.96;98557.56;5098673;28;20368;-59
2022/12/20 03:35:04;;;;;;;;;;;;;;;1.15;76.11;98559.06;5110750;28;19924;-60
2022/12/20 03:37:36;;;;;;;;;;;;;;;1.15;76.59;98552.91;5087500;28;19923;-59
2022/12/20 03:40:06;;;;;;;;;;;;;;;1.16;76.75;98550.00;5085076;28;19973;-59
2022/12/20 03:42:35;;;;;;;;;;;;;;;1.09;76.62;98552.00;5082262;28;19977;-58
2022/12/20 03:45:05;;;;;;;;;;;;;;;1.15;77.04;98547.56;5092148;28;19990;-59
2022/12/20 03:47:59;;;;;;;;;;;;;;;1.20;76.82;98553.03;5089592;28;19924;-59
2022/12/20 03:50:31;;;;;;;;;;;;;;;1.19;76.98;98562.09;5078685;28;19928;-59
2022/12/20 03:53:01;;;;;;;;;;;;;;;1.20;76.90;98558.38;5096592;28;20384;-64
2022/12/20 03:55:33;;;;;;;;;;;;;;;1.22;76.77;98569.66;5099479;28;19935;-58
2022/12/20 03:58:04;;;;;;;;;;;;;;;1.21;76.51;98551.97;5083450;28;19924;-59
2022/12/20 04:00:36;;;;;;;;;;;;;;;1.24;76.25;98549.66;5101099;28;20028;-62
2022/12/20 04:03:27;;;;;;;;;;;;;;;1.24;76.29;98551.50;5093345;28;20300;-64
2022/12/20 04:05:57;;;;;;;;;;;;;;;1.24;76.37;98546.97;5083423;28;19928;-59
2022/12/20 04:08:25;;;;;;;;;;;;;;;1.18;76.31;98544.44;5079753;28;19931;-60
2022/12/20 04:13:42;;;;;;;;;;;;;;;1.21;76.16;98536.72;5106203;28;19939;-63
2022/12/20 04:16:10;;;;;;;;;;;;;;;1.15;76.28;98536.84;5083292;28;20341;-60
2022/12/20 04:18:39;;;;;;;;;;;;;;;1.22;76.01;98532.19;5089627;28;19932;-59
2022/12/20 04:21:09;;;;;;;;;;;;;;;1.10;76.67;98536.75;5081697;28;19930;-58
2022/12/20 04:23:42;;;;;;;;;;;;;;;1.13;76.32;98536.28;5081288;28;19935;-59
2022/12/20 04:26:12;;;;;;;;;;;;;;;1.11;76.88;98535.69;5078825;28;20417;-61
2022/12/20 04:28:40;;;;;;;;;;;;;;;1.16;76.47;98535.81;5060722;28;19948;-60
2022/12/20 04:31:11;;;;;;;;;;;;;;;1.08;77.07;98530.81;5060491;28;19924;-59
2022/12/20 04:33:40;;;;;;;;;;;;;;;1.09;77.00;98516.38;5058859;28;19932;-58
2022/12/20 04:36:13;;;;;;;;;;;;;;;1.03;77.08;98521.63;5062179;28;19970;-59
2022/12/20 04:38:41;;;;;;;;;;;;;;;0.98;77.39;98518.84;5064068;28;19925;-60
2022/12/20 04:41:20;;;;;;;;;;;;;;;1.02;77.36;98516.53;5060651;28;20349;-59
2022/12/20 04:43:55;;;;;;;;;;;;;;;1.05;77.20;98527.53;5059657;28;20002;-60
2022/12/20 04:46:29;;;;;;;;;;;;;;;1.03;77.43;98518.94;5059190;28;19940;-59
2022/12/20 04:48:58;;;;;;;;;;;;;;;1.09;76.88;98522.56;5051201;28;19928;-59
2022/12/20 04:51:30;;;;;;;;;;;;;;;1.03;77.11;98518.94;5055662;28;19929;-63
2022/12/20 04:53:57;;;;;;;;;;;;;;;1.01;77.14;98509.50;5063058;28;19967;-58
2022/12/20 04:56:34;;;;;;;;;;;;;;;1.14;76.67;98509.28;5060523;28;19978;-59
2022/12/20 04:59:09;;;;;;;;;;;;;;;1.10;76.97;98501.94;5055427;28;19928;-59
2022/12/20 05:01:40;;;;;;;;;;;;;;;1.00;77.59;98497.19;5059016;28;19958;-59
2022/12/20 05:04:35;;;;;;;;;;;;;;;1.02;77.26;98489.75;5059806;28;19932;-59
2022/12/20 05:07:07;;;;;;;;;;;;;;;1.14;76.65;98479.03;5052767;28;19924;-59
2022/12/20 05:09:38;;;;;;;;;;;;;;;1.14;76.55;98487.88;5067625;28;19925;-61
2022/12/20 05:12:07;;;;;;;;;;;;;;;1.13;76.53;98485.44;5053491;28;19932;-59
2022/12/20 05:14:36;;;;;;;;;;;;;;;1.14;76.58;98487.88;5057540;28;19924;-60
2022/12/20 05:17:04;;;;;;;;;;;;;;;1.13;76.82;98486.25;5059573;28;19935;-61
2022/12/20 05:19:32;;;;;;;;;;;;;;;1.13;76.98;98480.09;5058899;28;20423;-59
2022/12/20 05:27:51;;;;;;;;;;;;;;;1.10;76.97;98481.34;5056092;28;20011;-59
2022/12/20 05:30:44;;;;;;;;;;;;;;;1.08;77.27;98478.13;5062862;28;19950;-59
2022/12/20 05:33:13;;;;;;;;;;;;;;;1.20;76.61;98467.38;5056151;28;19925;-59
2022/12/20 05:35:42;;;;;;;;;;;;;;;1.13;77.07;98467.50;5062337;28;19970;-59
2022/12/20 05:38:13;;;;;;;;;;;;;;;1.23;76.57;98454.34;5058079;28;19925;-60
2022/12/20 05:40:44;;;;;;;;;;;;;;;1.26;76.28;98453.03;5054558;28;19932;-59
2022/12/20 05:43:12;;;;;;;;;;;;;;;1.41;76.12;98455.22;5054856;28;19956;-66
2022/12/20 05:45:45;;;;;;;;;;;;;;;1.24;76.38;98445.25;5065152;28;20305;-60
2022/12/20 05:51:08;;;;;;;;;;;;;;;1.39;76.10;98457.31;5063775;28;19970;-59
2022/12/20 05:53:50;;;;;;;;;;;;;;;1.37;76.10;98449.50;5064392;28;20350;-62
2022/12/20 05:56:26;;;;;;;;;;;;;;;1.36;76.42;98463.13;5056097;28;19959;-59
2022/12/20 05:58:58;;;;;;;;;;;;;;;1.40;76.34;98469.66;5061187;28;19974;-59
2022/12/20 06:01:27;;;;;;;;;;;;;;;1.44;76.36;98476.97;5057995;28;20631;-59
2022/12/20 06:03:58;;;;;;;;;;;;;;;1.51;75.90;98477.63;5063274;28;19974;-64
2022/12/20 06:06:27;;;;;;;;;;;;;;;1.52;76.52;98470.41;5066739;28;19929;-59
2022/12/20 06:08:56;;;;;;;;;;;;;;;1.56;75.66;98471.56;5066078;28;19939;-59
2022/12/20 06:11:38;;;;;;;;;;;;;;;1.55;75.88;98472.63;5060808;28;19924;-59
2022/12/20 06:14:11;;;;;;;;;;;;;;;1.50;75.88;98475.22;5051465;28;19929;-61
2022/12/20 06:16:44;;;;;;;;;;;;;;;1.56;76.04;98467.03;5054677;28;19929;-59
2022/12/20 06:19:15;;;;;;;;;;;;;;;1.59;75.99;98481.78;5060165;28;20352;-61
2022/12/20 06:21:49;;;;;;;;;;;;;;;1.60;75.77;98474.56;5058549;28;20301;-60
2022/12/20 06:24:24;;;;;;;;;;;;;;;1.62;75.62;98467.94;5060695;28;19967;-63
2022/12/20 06:26:54;;;;;;;;;;;;;;;1.47;76.02;98457.75;5092003;28;20288;-66
2022/12/20 06:29:25;;;;;;;;;;;;;;;1.66;75.49;98457.56;5083783;28;19959;-63
2022/12/20 06:32:19;;;;;;;;;;;;;;;1.57;75.80;98457.94;5100001;27;19943;-59
2022/12/20 06:34:50;;;;;;;;;;;;;;;1.65;75.61;98470.13;5086581;28;19936;-63
2022/12/20 06:37:21;;;;;;;;;;;;;;;1.58;75.71;98456.06;5077878;28;19934;-59
2022/12/20 06:39:50;;;;;;;;;;;;;;;1.73;75.51;98458.22;5078645;28;20299;-60
2022/12/20 06:42:24;;;;;;;;;;;;;;;1.68;75.47;98455.44;5087833;28;19924;-59
2022/12/20 06:44:53;;;;;;;;;;;;;;;1.71;75.36;98465.69;5090106;28;20001;-59
2022/12/20 06:47:23;;;;;;;;;;;;;;;1.70;75.38;98474.75;5090283;28;19927;-59
2022/12/20 06:49:52;;;;;;;;;;;;;;;1.65;75.87;98482.69;5090116;28;19924;-59
2022/12/20 06:52:22;;;;;;;;;;;;;;;1.72;75.87;98483.38;5097906;27;20133;-60
2022/12/20 06:54:54;;;;;;;;;;;;;;;1.75;75.91;98478.34;5098368;27;19924;-64
2022/12/20 06:57:31;;;;;;;;;;;;;;;1.76;75.29;98489.88;5093461;28;19963;-59
2022/12/20 07:00:00;;;;;;;;;;;;;;;1.79;75.47;98508.97;5106965;28;19924;-59
2022/12/20 07:02:28;;;;;;;;;;;;;;;1.78;75.15;98509.22;5107284;28;20022;-59
2022/12/20 07:04:56;;;;;;;;;;;;;;;1.89;75.00;98511.00;5114218;27;19924;-59
2022/12/20 07:07:24;;;;;;;;;;;;;;;1.83;75.20;98503.94;5100939;28;19935;-60
2022/12/20 07:09:56;;;;;;;;;;;;;;;1.80;75.34;98502.53;5097428;28;19969;-59
2022/12/20 07:12:24;;;;;;;;;;;;;;;1.85;75.57;98507.19;5110137;28;19924;-59
2022/12/20 07:14:53;;;;;;;;;;;;;;;1.91;75.44;98497.38;5086968;28;19923;-59
2022/12/20 07:17:24;;;;;;;;;;;;;;;1.84;75.96;98492.97;5117561;27;19965;-59
2022/12/20 07:19:52;;;;;;;;;;;;;;;1.86;75.98;98499.94;5108542;28;19923;-59
2022/12/20 07:22:20;;;;;;;;;;;;;;;1.91;75.53;98494.69;5097393;28;19935;-59
2022/12/20 07:24:49;;;;;;;;;;;;;;;1.93;75.42;98485.38;5111871;28;20377;-59
2022/12/20 07:27:17;;;;;;;;;;;;;;;1.92;75.12;98481.06;5117254;27;19947;-59
2022/12/20 07:29:45;;;;;;;;;;;;;;;1.95;75.25;98485.94;5091810;27;19923;-59
2022/12/20 07:32:15;;;;;;;;;;;;;;;1.99;75.19;98478.22;5106693;28;20018;-60
2022/12/20 07:34:43;;;;;;;;;;;;;;;1.98;75.30;98472.06;5087521;27;20030;-59
2022/12/20 07:37:12;;;;;;;;;;;;;;;2.05;74.68;98464.66;5086335;28;20484;-59
2022/12/20 07:39:41;;;;;;;;;;;;;;;2.06;74.28;98463.59;5109163;27;19931;-59
2022/12/20 07:42:11;;;;;;;;;;;;;;;1.96;74.24;98451.91;5111491;28;19932;-59
2022/12/20 07:44:43;;;;;;;;;;;;;;;2.02;75.06;98467.81;5116588;27;19950;-59
2022/12/20 07:50:13;;;;;;;;;;;;;;;2.07;74.26;98472.47;5106896;28;19970;-60
2022/12/20 07:52:41;;;;;;;;;;;;;;;2.01;74.91;98460.84;5094848;28;19924;-59
2022/12/20 07:55:10;;;;;;;;;;;;;;;2.13;74.34;98451.91;5097866;28;19924;-61
2022/12/20 07:57:39;;;;;;;;;;;;;;;2.13;74.23;98451.91;5094052;28;20322;-64
2022/12/20 08:00:09;;;;;;;;;;;;;;;2.07;74.49;98449.16;5106645;27;19935;-59
2022/12/20 08:02:40;;;;;;;;;;;;;;;2.18;74.20;98449.31;5105591;28;19923;-63
2022/12/20 08:05:09;;;;;;;;;;;;;;;2.21;74.55;98451.53;5108556;27;19923;-59
2022/12/20 08:07:40;;;;;;;;;;;;;;;2.18;74.21;98452.00;5110022;27;19924;-61
2022/12/20 08:10:37;;;;;;;;;;;;;;;2.28;74.24;98442.25;5112636;27;20332;-61
2022/12/20 08:13:05;;;;;;;;;;;;;;;2.33;74.21;98447.69;5116870;27;19924;-61
2022/12/20 08:15:33;;;;;;;;;;;;;;;2.36;73.76;98449.91;5101227;28;20281;-61
2022/12/20 08:18:02;;;;;;;;;;;;;;;2.37;73.96;98434.63;5107841;27;19923;-61
2022/12/20 08:20:30;;;;;;;;;;;;;;;2.34;74.29;98427.88;5099902;28;19935;-61
2022/12/20 08:22:59;;;;;;;;;;;;;;;2.41;74.30;98435.75;5107162;27;19930;-62
2022/12/20 08:25:28;;;;;;;;;;;;;;;2.40;74.02;98425.25;5099214;28;20045;-61
2022/12/20 08:27:56;;;;;;;;;;;;;;;2.49;73.67;98421.09;5079449;28;19924;-61
2022/12/20 08:30:48;;;;;;;;;;;;;;;2.54;73.07;98407.78;5107285;27;20189;-61
2022/12/20 08:33:16;;;;;;;;;;;;;;;2.61;73.41;98411.91;5088600;27;20345;-61
2022/12/20 08:35:45;;;;;;;;;;;;;;;2.62;72.71;98416.22;5095266;28;19928;-61
2022/12/20 08:38:15;;;;;;;;;;;;;;;2.64;73.13;98418.66;5109776;27;20376;-61
2022/12/20 08:40:44;;;;;;;;;;;;;;;2.71;72.80;98408.53;5113158;27;20392;-61
2022/12/20 08:43:12;;;;;;;;;;;;;;;2.76;72.52;98413.16;5088656;28;20289;-61
2022/12/20 08:45:40;;;;;;;;;;;;;;;2.75;72.71;98407.00;5110889;28;19966;-62
2022/12/20 08:48:09;;;;;;;;;;;;;;;2.77;73.15;98404.03;5093902;27;19928;-61
2022/12/20 08:50:37;;;;;;;;;;;;;;;2.82;73.13;98398.75;5093154;28;19923;-61
2022/12/20 08:53:05;;;;;;;;;;;;;;;2.83;73.14;98405.75;5100954;28;20022;-61
2022/12/20 08:55:35;;;;;;;;;;;;;;;2.75;72.85;98396.25;5098250;27;20007;-61
2022/12/20 08:58:06;;;;;;;;;;;;;;;2.86;72.46;98394.50;5105599;28;19934;-61
2022/12/20 09:00:35;;;;;;;;;;;;;;;2.88;72.54;98395.09;5106971;28;19947;-61
2022/12/20 09:03:03;;;;;;;;;;;;;;;2.99;72.01;98406.78;5082778;28;20436;-61
2022/12/20 09:05:32;;;;;;;;;;;;;;;3.01;72.12;98402.75;5098370;28;20268;-61
2022/12/20 09:08:00;;;;;;;;;;;;;;;3.07;71.83;98399.06;5072250;28;19979;-62
2022/12/20 09:10:28;;;;;;;;;;;;;;;3.18;71.82;98397.31;5077880;28;19924;-61
2022/12/20 09:13:23;;;;;;;;;;;;;;;3.20;71.55;98400.56;5095831;28;19951;-61
2022/12/20 09:15:51;;;;;;;;;;;;;;;3.25;71.68;98400.63;5086824;28;19967;-62
2022/12/20 09:18:20;;;;;;;;;;;;;;;3.30;71.33;98405.22;5111310;27;19967;-65
2022/12/20 09:20:48;;;;;;;;;;;;;;;3.45;70.75;98399.22;5095046;28;19924;-62
2022/12/20 09:23:16;;;;;;;;;;;;;;;3.40;70.70;98397.28;5096342;28;19924;-61
2022/12/20 09:25:44;;;;;;;;;;;;;;;3.45;70.93;98410.75;5106341;28;19938;-61
2022/12/20 09:28:20;;;;;;;;;;;;;;;3.48;70.94;98410.28;5099679;27;19954;-61
2022/12/20 09:30:50;;;;;;;;;;;;;;;3.53;70.45;98426.44;5102541;28;19928;-61
2022/12/20 09:33:18;;;;;;;;;;;;;;;3.51;70.64;98425.06;5095936;28;20385;-61
2022/12/20 09:35:46;;;;;;;;;;;;;;;3.51;70.84;98419.69;5099569;28;19924;-62
2022/12/20 09:38:16;;;;;;;;;;;;;;;3.48;71.06;98415.63;5103285;28;19935;-61
2022/12/20 09:40:47;;;;;;;;;;;;;;;3.46;71.09;98411.56;5102499;28;19924;-61
2022/12/20 09:43:15;;;;;;;;;;;;;;;3.46;70.92;98408.88;5101460;28;20038;-61
2022/12/20 09:45:44;;;;;;;;;;;;;;;3.40;71.03;98395.41;5092231;28;19931;-62
2022/12/20 09:48:15;;;;;;;;;;;;;;;3.34;71.10;98398.28;5081770;28;20388;-61
2022/12/20 09:50:45;;;;;;;;;;;;;;;3.42;70.94;98384.44;5100827;28;19931;-61
2022/12/20 09:53:15;;;;;;;;;;;;;;;3.44;70.62;98387.66;5104517;28;19935;-61
2022/12/20 09:55:49;;;;;;;;;;;;;;;3.50;70.63;98399.25;5105700;28;19938;-61
2022/12/20 09:58:21;;;;;;;;;;;;;;;3.48;70.50;98396.84;5106383;28;19949;-61
2022/12/20 10:00:50;;;;;;;;;;;;;;;3.48;71.17;98385.28;5106657;28;20296;-62
2022/12/20 10:03:23;;;;;;;;;;;;;;;3.38;70.95;98388.69;5100238;28;19962;-61
2022/12/20 10:05:52;;;;;;;;;;;;;;;3.44;71.07;98381.47;5100309;28;19924;-61
2022/12/20 10:08:24;;;;;;;;;;;;;;;3.38;70.79;98373.38;5077140;28;19928;-61
2022/12/20 10:10:58;;;;;;;;;;;;;;;3.37;71.42;98368.25;5094766;28;19924;-61
2022/12/20 10:13:30;;;;;;;;;;;;;;;3.28;71.21;98356.34;5094241;28;20380;-61
2022/12/20 10:16:01;;;;;;;;;;;;;;;3.32;71.33;98346.72;5098516;28;20455;-61
2022/12/20 10:18:35;;;;;;;;;;;;;;;3.45;71.53;98351.66;5107075;28;19924;-61
2022/12/20 10:21:05;;;;;;;;;;;;;;;3.44;71.39;98349.25;5098790;28;19982;-62
2022/12/20 10:26:27;;;;;;;;;;;;;;;3.49;70.98;98338.56;5095307;28;19952;-61
2022/12/20 10:28:55;;;;;;;;;;;;;;;3.61;71.43;98333.81;5093122;28;19961;-62
2022/12/20 10:31:24;;;;;;;;;;;;;;;3.59;70.81;98315.28;5094840;28;19938;-61
2022/12/20 10:33:55;;;;;;;;;;;;;;;3.57;70.69;98320.09;5101803;28;19970;-61
2022/12/20 10:36:26;;;;;;;;;;;;;;;3.83;70.20;98317.59;5097098;28;19939;-61
2022/12/20 10:38:55;;;;;;;;;;;;;;;3.63;70.06;98321.75;5080452;28;20098;-62
2022/12/20 10:41:24;;;;;;;;;;;;;;;3.86;70.42;98312.53;5081724;28;19924;-61
2022/12/20 10:43:59;;;;;;;;;;;;;;;3.97;69.99;98299.97;5101520;28;19928;-61
2022/12/20 10:46:56;;;;;;;;;;;;;;;4.02;69.34;98300.00;5111097;27;19934;-61
2022/12/20 10:49:30;;;;;;;;;;;;;;;4.06;69.63;98303.00;5087925;28;19923;-61
2022/12/20 10:52:00;;;;;;;;;;;;;;;4.18;69.50;98296.34;5102189;27;19977;-61
2022/12/20 10:54:29;;;;;;;;;;;;;;;4.04;69.04;98289.78;5104758;28;19924;-61
2022/12/20 10:56:58;;;;;;;;;;;;;;;4.07;69.09;98294.66;5096605;27;19935;-62
2022/12/20 10:59:29;;;;;;;;;;;;;;;4.05;69.10;98286.06;5083779;28;20436;-61
2022/12/20 11:02:09;;;;;;;;;;;;;;;4.14;69.69;98289.84;5096672;28;19931;-61
2022/12/20 11:04:39;;;;;;;;;;;;;;;4.13;69.28;98284.75;5102273;28;20361;-61
2022/12/20 11:07:22;;;;;;;;;;;;;;;3.98;69.91;98290.81;5078683;28;19924;-61
2022/12/20 11:09:52;;;;;;;;;;;;;;;4.14;70.48;98284.47;5104791;27;19997;-61
2022/12/20 11:12:21;;;;;;;;;;;;;;;4.14;70.42;98289.03;5096308;28;19924;-61
2022/12/20 11:14:49;;;;;;;;;;;;;;;4.09;70.25;98284.44;5106404;28;19932;-62
2022/12/20 11:17:21;;;;;;;;;;;;;;;4.22;70.26;98285.06;5108120;28;19931;-61
2022/12/20 11:20:08;;;;;;;;;;;;;;;4.31;70.17;98278.09;5118869;27;20038;-62
2022/12/20 11:22:41;;;;;;;;;;;;;;;4.44;69.92;98273.06;5080718;28;19928;-62
2022/12/20 11:25:22;;;;;;;;;;;;;;;4.47;70.51;98258.28;5107352;28;19924;-61
2022/12/20 11:27:52;;;;;;;;;;;;;;;4.37;69.47;98260.94;5109483;28;19934;-62
2022/12/20 11:30:48;;;;;;;;;;;;;;;4.58;69.18;98262.66;5099105;28;19951;-61
2022/12/20 11:33:22;;;;;;;;;;;;;;;4.58;70.28;98262.66;5109685;27;19923;-61
2022/12/20 11:35:52;;;;;;;;;;;;;;;4.51;68.99;98263.94;5088133;28;19928;-61
2022/12/20 11:38:28;;;;;;;;;;;;;;;4.55;70.59;98276.63;5113521;27;20292;-61
2022/12/20 11:43:57;;;;;;;;;;;;;;;4.49;69.63;98271.47;5098295;28;20014;-61
2022/12/20 11:46:58;;;;;;;;;;;;;;;4.51;69.55;98272.81;5087341;28;19947;-61
2022/12/20 11:49:40;;;;;;;;;;;;;;;4.49;70.10;98269.59;5117205;27;19928;-61
2022/12/20 11:52:10;;;;;;;;;;;;;;;4.55;70.27;98251.59;5105436;28;19988;-61
2022/12/20 11:54:41;;;;;;;;;;;;;;;4.55;70.79;98251.59;5113740;28;19927;-61
2022/12/20 11:57:14;;;;;;;;;;;;;;;4.52;69.93;98244.84;5080599;28;20464;-62
2022/12/20 12:00:06;;;;;;;;;;;;;;;4.44;69.12;98229.22;5104878;27;20028;-61
2022/12/20 12:02:44;;;;;;;;;;;;;;;4.38;69.51;98235.66;5110478;28;19923;-61
2022/12/20 12:05:15;;;;;;;;;;;;;;;4.36;69.20;98229.72;5108478;27;19924;-61
2022/12/20 12:10:44;;;;;;;;;;;;;;;4.26;71.40;98226.97;5106023;27;19927;-61
2022/12/20 12:13:16;;;;;;;;;;;;;;;4.26;70.94;98226.97;5107781;28;19935;-61
2022/12/20 12:15:47;;;;;;;;;;;;;;;4.18;71.07;98225.63;5101670;28;20356;-61
2022/12/20 12:18:17;;;;;;;;;;;;;;;4.25;71.48;98225.38;5115660;27;19927;-61
2022/12/20 12:20:48;;;;;;;;;;;;;;;4.31;72.03;98213.56;5106125;27;19923;-61
2022/12/20 12:23:18;;;;;;;;;;;;;;;4.10;70.78;98199.22;5090751;28;19928;-61
2022/12/20 12:25:49;;;;;;;;;;;;;;;4.27;71.42;98204.41;5120284;27;19969;-61
2022/12/20 12:28:18;;;;;;;;;;;;;;;4.37;70.68;98199.88;5123027;27;19924;-61
2022/12/20 12:30:47;;;;;;;;;;;;;;;4.41;71.86;98190.19;5108572;27;19955;-61
2022/12/20 12:33:17;;;;;;;;;;;;;;;4.36;71.36;98186.69;5085134;28;19928;-61
2022/12/20 12:36:00;;;;;;;;;;;;;;;4.34;72.72;98188.84;5098800;27;19928;-61
2022/12/20 12:38:44;;;;;;;;;;;;;;;4.45;71.74;98198.53;5107214;27;20344;-60
2022/12/20 12:41:19;;;;;;;;;;;;;;;4.43;71.53;98198.81;5099338;28;19923;-60
2022/12/20 12:43:48;;;;;;;;;;;;;;;4.51;71.63;98186.72;5103865;28;19924;-61
2022/12/20 12:46:18;;;;;;;;;;;;;;;4.59;71.35;98188.91;5103735;28;20291;-60
2022/12/20 12:48:49;;;;;;;;;;;;;;;4.57;71.57;98182.97;5092148;28;19928;-61
2022/12/20 12:51:21;;;;;;;;;;;;;;;4.61;69.75;98192.13;5097234;28;19932;-61
2022/12/20 12:53:52;;;;;;;;;;;;;;;4.62;71.08;98204.50;5103406;28;19924;-61
2022/12/20 12:56:33;;;;;;;;;;;;;;;4.60;69.77;98198.59;5113973;27;20383;-67
2022/12/20 12:59:39;;;;;;;;;;;;;;;4.50;69.47;98171.66;5113350;27;19923;-61
2022/12/20 13:02:24;;;;;;;;;;;;;;;4.56;70.87;98167.91;5102637;28;19924;-62
2022/12/20 13:04:54;;;;;;;;;;;;;;;4.51;69.87;98154.44;5103332;27;19924;-60
2022/12/20 13:07:26;;;;;;;;;;;;;;;4.43;69.54;98144.22;5110832;27;19927;-60
2022/12/20 13:09:54;;;;;;;;;;;;;;;4.44;69.99;98143.94;5105783;27;19964;-60
2022/12/20 13:12:50;;;;;;;;;;;;;;;4.33;71.01;98147.69;5105106;28;19932;-61
2022/12/20 13:15:37;;;;;;;;;;;;;;;4.39;71.91;98151.19;5105591;28;20295;-60
2022/12/20 13:18:21;;;;;;;;;;;;;;;4.29;71.77;98151.16;5103838;28;19927;-60
2022/12/20 13:21:04;;;;;;;;;;;;;;;4.20;71.70;98148.97;5103025;27;19928;-61
2022/12/20 13:26:50;;;;;;;;;;;;;;;4.32;72.63;98139.88;5102325;28;19927;-60
2022/12/20 13:29:25;;;;;;;;;;;;;;;4.32;72.54;98139.88;5094033;28;20196;-60
2022/12/20 13:32:33;;;;;;;;;;;;;;;4.31;72.08;98133.66;5101553;28;19924;-61
2022/12/20 13:35:03;;;;;;;;;;;;;;;4.32;72.31;98134.50;5097202;28;20021;-60
2022/12/20 13:37:46;;;;;;;;;;;;;;;4.36;72.54;98133.69;5088408;28;20332;-60
2022/12/20 13:40:23;;;;;;;;;;;;;;;4.33;72.79;98131.53;5101969;28;20027;-61
2022/12/20 13:43:17;;;;;;;;;;;;;;;4.34;71.66;98126.97;5106428;28;19960;-61
2022/12/20 13:45:46;;;;;;;;;;;;;;;4.33;71.33;98130.72;5109602;28;20361;-61
2022/12/20 13:48:16;;;;;;;;;;;;;;;4.26;71.28;98140.91;5094373;28;19927;-60
2022/12/20 13:50:49;;;;;;;;;;;;;;;4.27;72.65;98150.63;5113154;27;19947;-61
2022/12/20 13:53:18;;;;;;;;;;;;;;;4.30;72.54;98158.94;5080193;28;19931;-61
2022/12/20 13:55:48;;;;;;;;;;;;;;;4.28;72.64;98163.00;5080374;28;19948;-62